Time,TemperatureF,DewpointF,PressureIn,WindDirection,WindDirectionDegrees,WindSpeedMPH,WindSpeedGustMPH,Humidity,HourlyPrecipIn,Conditions,Clouds,dailyrainin,SoftwareType,DateUTC
2014-12-26 00:30:00,33.2,31.4,30.16,SSW,195,1.0,2.0,93,0.00,,,0.00,Wunderground v.1.15,2014-12-26 05:30:00,
2014-12-26 00:50:00,32.3,30.8,30.15,South,185,1.0,1.0,94,0.00,,,0.00,Wunderground v.1.15,2014-12-26 05:50:00,
2014-12-26 00:56:00,32.3,30.8,30.15,SSW,199,2.0,3.0,94,0.00,,,0.00,Wunderground v.1.15,2014-12-26 05:56:00,
2014-12-26 01:01:00,31.7,29.9,30.16,SSW,207,0.0,1.0,93,0.00,,,0.00,Wunderground v.1.15,2014-12-26 06:01:00,
2014-12-26 01:06:00,31.3,29.8,30.16,SW,231,0.0,1.0,94,0.00,,,0.00,Wunderground v.1.15,2014-12-26 06:06:00,
2014-12-26 01:12:00,31.1,29.8,30.16,SSW,195,0.0,1.0,95,0.00,,,0.00,Wunderground v.1.15,2014-12-26 06:12:00,
2014-12-26 01:18:00,31.2,29.9,30.16,SSW,205,0.0,1.0,95,0.00,,,0.00,Wunderground v.1.15,2014-12-26 06:18:00,
2014-12-26 01:24:00,31.0,29.7,30.16,South,188,0.0,0.0,95,0.00,,,0.00,Wunderground v.1.15,2014-12-26 06:24:00,
2014-12-26 01:29:00,30.9,29.6,30.16,South,188,0.0,0.0,95,0.00,,,0.00,Wunderground v.1.15,2014-12-26 06:29:00,
2014-12-26 01:35:00,30.6,29.3,30.16,South,188,0.0,0.0,95,0.00,,,0.00,Wunderground v.1.15,2014-12-26 06:35:00,
2014-12-26 01:41:00,30.2,28.9,30.16,South,188,0.0,0.0,95,0.00,,,0.00,Wunderground v.1.15,2014-12-26 06:41:00,
2014-12-26 01:47:00,29.9,28.9,30.16,South,188,0.0,0.0,96,0.00,,,0.00,Wunderground v.1.15,2014-12-26 06:47:00,
2014-12-26 01:53:00,29.8,28.8,30.17,South,191,0.0,0.0,96,0.00,,,0.00,Wunderground v.1.15,2014-12-26 06:53:00,
2014-12-26 01:58:00,29.9,28.9,30.17,South,191,0.0,0.0,96,0.00,,,0.00,Wunderground v.1.15,2014-12-26 06:58:00,
2014-12-26 02:03:00,29.8,28.8,30.17,South,191,0.0,0.0,96,0.00,,,0.00,Wunderground v.1.15,2014-12-26 07:03:00,
2014-12-26 02:08:00,29.6,28.6,30.18,South,191,0.0,0.0,96,0.00,,,0.00,Wunderground v.1.15,2014-12-26 07:08:00,
2014-12-26 02:13:00,29.7,29.0,30.18,South,191,0.0,0.0,97,0.00,,,0.00,Wunderground v.1.15,2014-12-26 07:13:00,
2014-12-26 02:18:00,29.9,29.2,30.19,South,191,0.0,0.0,97,0.00,,,0.00,Wunderground v.1.15,2014-12-26 07:18:00,
2014-12-26 02:23:00,30.1,29.4,30.19,South,175,1.0,1.0,97,0.00,,,0.00,Wunderground v.1.15,2014-12-26 07:23:00,
2014-12-26 02:28:00,30.4,29.7,30.18,SSE,161,1.0,2.0,97,0.00,,,0.00,Wunderground v.1.15,2014-12-26 07:28:00,
2014-12-26 02:33:00,30.7,30.0,30.18,SSE,148,0.0,2.0,97,0.00,,,0.00,Wunderground v.1.15,2014-12-26 07:33:00,
2014-12-26 02:38:00,31.0,30.2,30.19,South,174,2.0,3.0,97,0.00,,,0.00,Wunderground v.1.15,2014-12-26 07:38:00,
2014-12-26 02:43:00,31.2,30.4,30.19,ESE,113,0.0,1.0,97,0.00,,,0.00,Wunderground v.1.15,2014-12-26 07:43:00,
2014-12-26 02:48:00,31.1,30.3,30.19,SSE,162,0.0,2.0,97,0.00,,,0.00,Wunderground v.1.15,2014-12-26 07:48:00,
2014-12-26 02:53:00,31.0,30.2,30.19,SSE,157,0.0,1.0,97,0.00,,,0.00,Wunderground v.1.15,2014-12-26 07:53:00,
2014-12-26 02:58:00,31.0,30.2,30.19,South,181,0.0,1.0,97,0.00,,,0.00,Wunderground v.1.15,2014-12-26 07:58:00,
2014-12-26 03:03:00,30.7,29.7,30.19,South,172,0.0,2.0,96,0.00,,,0.00,Wunderground v.1.15,2014-12-26 08:03:00,
2014-12-26 03:08:00,30.4,29.4,30.20,SSW,206,0.0,2.0,96,0.00,,,0.00,Wunderground v.1.15,2014-12-26 08:08:00,
2014-12-26 03:13:00,30.0,29.0,30.20,SSW,206,0.0,0.0,96,0.00,,,0.00,Wunderground v.1.15,2014-12-26 08:13:00,
2014-12-26 03:18:00,29.6,28.6,30.20,SSW,212,0.0,2.0,96,0.00,,,0.00,Wunderground v.1.15,2014-12-26 08:18:00,
2014-12-26 03:23:00,29.3,28.3,30.20,SSW,213,0.0,0.0,96,0.00,,,0.00,Wunderground v.1.15,2014-12-26 08:23:00,
2014-12-26 03:28:00,29.1,28.1,30.20,SSW,213,0.0,0.0,96,0.00,,,0.00,Wunderground v.1.15,2014-12-26 08:28:00,
2014-12-26 03:33:00,28.8,27.8,30.20,SSW,213,0.0,0.0,96,0.00,,,0.00,Wunderground v.1.15,2014-12-26 08:33:00,